sensor_id;sensor_type;location;lat;lon;timestamp;P1;durP1;ratioP1;P2;durP2;ratioP2
67715;SDS011;54508;43.238;25.306;2023-06-14T00:00:12;6.57;;;4.53;;
67715;SDS011;54508;43.238;25.306;2023-06-14T00:02:39;6.15;;;4.95;;
67715;SDS011;54508;43.238;25.306;2023-06-14T00:05:07;5.55;;;4.75;;
67715;SDS011;54508;43.238;25.306;2023-06-14T00:07:36;6.20;;;4.87;;
67715;SDS011;54508;43.238;25.306;2023-06-14T00:10:09;6.97;;;5.00;;
67715;SDS011;54508;43.238;25.306;2023-06-14T00:12:35;5.95;;;5.15;;
67715;SDS011;54508;43.238;25.306;2023-06-14T00:15:01;7.47;;;5.17;;
67715;SDS011;54508;43.238;25.306;2023-06-14T00:17:27;5.82;;;5.03;;
67715;SDS011;54508;43.238;25.306;2023-06-14T00:19:56;7.80;;;5.10;;
67715;SDS011;54508;43.238;25.306;2023-06-14T00:22:25;5.85;;;5.18;;
67715;SDS011;54508;43.238;25.306;2023-06-14T00:24:51;8.97;;;5.70;;
67715;SDS011;54508;43.238;25.306;2023-06-14T00:27:16;7.38;;;5.05;;
67715;SDS011;54508;43.238;25.306;2023-06-14T00:29:42;8.93;;;5.43;;
67715;SDS011;54508;43.238;25.306;2023-06-14T00:32:08;5.97;;;5.32;;
67715;SDS011;54508;43.238;25.306;2023-06-14T00:34:33;6.10;;;5.50;;
67715;SDS011;54508;43.238;25.306;2023-06-14T00:36:59;7.95;;;4.95;;
67715;SDS011;54508;43.238;25.306;2023-06-14T00:39:25;6.97;;;5.27;;
67715;SDS011;54508;43.238;25.306;2023-06-14T00:41:50;7.87;;;5.37;;
67715;SDS011;54508;43.238;25.306;2023-06-14T00:44:16;6.53;;;4.97;;
67715;SDS011;54508;43.238;25.306;2023-06-14T00:46:42;5.83;;;4.80;;
67715;SDS011;54508;43.238;25.306;2023-06-14T00:49:09;6.05;;;5.25;;
67715;SDS011;54508;43.238;25.306;2023-06-14T00:51:35;5.68;;;5.05;;
67715;SDS011;54508;43.238;25.306;2023-06-14T00:54:02;9.00;;;5.22;;
67715;SDS011;54508;43.238;25.306;2023-06-14T00:56:28;8.43;;;5.53;;
67715;SDS011;54508;43.238;25.306;2023-06-14T00:58:54;7.63;;;5.38;;
67715;SDS011;54508;43.238;25.306;2023-06-14T01:01:20;6.97;;;5.43;;
67715;SDS011;54508;43.238;25.306;2023-06-14T01:03:45;5.83;;;5.20;;
67715;SDS011;54508;43.238;25.306;2023-06-14T01:06:19;8.13;;;5.37;;
67715;SDS011;54508;43.238;25.306;2023-06-14T01:09:04;7.38;;;5.20;;
67715;SDS011;54508;43.238;25.306;2023-06-14T01:11:43;8.32;;;5.53;;
67715;SDS011;54508;43.238;25.306;2023-06-14T01:14:28;6.53;;;5.18;;
67715;SDS011;54508;43.238;25.306;2023-06-14T01:16:55;6.15;;;5.55;;
67715;SDS011;54508;43.238;25.306;2023-06-14T01:19:22;6.70;;;5.38;;
67715;SDS011;54508;43.238;25.306;2023-06-14T01:21:51;7.20;;;5.63;;
67715;SDS011;54508;43.238;25.306;2023-06-14T01:24:17;7.30;;;5.00;;
67715;SDS011;54508;43.238;25.306;2023-06-14T01:26:48;7.30;;;5.30;;
67715;SDS011;54508;43.238;25.306;2023-06-14T01:29:16;6.93;;;5.10;;
67715;SDS011;54508;43.238;25.306;2023-06-14T01:31:42;5.63;;;4.68;;
67715;SDS011;54508;43.238;25.306;2023-06-14T01:34:08;6.53;;;5.20;;
67715;SDS011;54508;43.238;25.306;2023-06-14T01:36:33;7.77;;;5.13;;
67715;SDS011;54508;43.238;25.306;2023-06-14T01:39:01;6.68;;;4.93;;
67715;SDS011;54508;43.238;25.306;2023-06-14T01:41:27;5.67;;;5.13;;
67715;SDS011;54508;43.238;25.306;2023-06-14T01:43:53;6.75;;;5.53;;
67715;SDS011;54508;43.238;25.306;2023-06-14T01:46:19;8.50;;;5.30;;
67715;SDS011;54508;43.238;25.306;2023-06-14T01:48:45;8.43;;;4.70;;
67715;SDS011;54508;43.238;25.306;2023-06-14T01:51:11;6.55;;;5.10;;
67715;SDS011;54508;43.238;25.306;2023-06-14T01:53:36;5.90;;;5.20;;
67715;SDS011;54508;43.238;25.306;2023-06-14T01:56:02;7.37;;;5.93;;
67715;SDS011;54508;43.238;25.306;2023-06-14T01:58:27;7.27;;;4.87;;
67715;SDS011;54508;43.238;25.306;2023-06-14T02:00:53;7.00;;;5.15;;
67715;SDS011;54508;43.238;25.306;2023-06-14T02:03:20;5.75;;;4.57;;
67715;SDS011;54508;43.238;25.306;2023-06-14T02:05:46;6.15;;;4.90;;
67715;SDS011;54508;43.238;25.306;2023-06-14T02:08:12;5.53;;;5.03;;
67715;SDS011;54508;43.238;25.306;2023-06-14T02:10:37;7.03;;;5.30;;
67715;SDS011;54508;43.238;25.306;2023-06-14T02:13:03;6.17;;;5.20;;
67715;SDS011;54508;43.238;25.306;2023-06-14T02:15:28;6.00;;;5.20;;
67715;SDS011;54508;43.238;25.306;2023-06-14T02:17:59;8.10;;;5.10;;
67715;SDS011;54508;43.238;25.306;2023-06-14T02:20:28;7.13;;;4.80;;
67715;SDS011;54508;43.238;25.306;2023-06-14T02:22:54;7.38;;;5.05;;
67715;SDS011;54508;43.238;25.306;2023-06-14T02:25:20;7.07;;;5.45;;
67715;SDS011;54508;43.238;25.306;2023-06-14T02:27:45;5.23;;;4.30;;
67715;SDS011;54508;43.238;25.306;2023-06-14T02:30:11;5.80;;;4.90;;
67715;SDS011;54508;43.238;25.306;2023-06-14T02:32:37;7.63;;;4.90;;
67715;SDS011;54508;43.238;25.306;2023-06-14T02:35:03;6.18;;;5.13;;
67715;SDS011;54508;43.238;25.306;2023-06-14T02:37:29;8.02;;;4.90;;
67715;SDS011;54508;43.238;25.306;2023-06-14T02:39:55;6.37;;;4.70;;
67715;SDS011;54508;43.238;25.306;2023-06-14T02:42:21;7.85;;;4.72;;
67715;SDS011;54508;43.238;25.306;2023-06-14T02:44:46;8.17;;;5.03;;
67715;SDS011;54508;43.238;25.306;2023-06-14T02:47:16;8.70;;;4.78;;
67715;SDS011;54508;43.238;25.306;2023-06-14T02:49:42;8.05;;;5.28;;
67715;SDS011;54508;43.238;25.306;2023-06-14T02:52:08;6.95;;;5.25;;
67715;SDS011;54508;43.238;25.306;2023-06-14T02:54:34;6.53;;;4.72;;
67715;SDS011;54508;43.238;25.306;2023-06-14T02:56:59;6.30;;;4.97;;
67715;SDS011;54508;43.238;25.306;2023-06-14T02:59:25;6.63;;;4.53;;
67715;SDS011;54508;43.238;25.306;2023-06-14T03:01:51;7.30;;;5.45;;
67715;SDS011;54508;43.238;25.306;2023-06-14T03:04:17;5.97;;;4.90;;
67715;SDS011;54508;43.238;25.306;2023-06-14T03:06:42;6.80;;;5.00;;
67715;SDS011;54508;43.238;25.306;2023-06-14T03:09:09;5.78;;;5.07;;
67715;SDS011;54508;43.238;25.306;2023-06-14T03:11:40;5.60;;;4.47;;
67715;SDS011;54508;43.238;25.306;2023-06-14T03:14:06;8.15;;;5.18;;
67715;SDS011;54508;43.238;25.306;2023-06-14T03:16:32;7.37;;;5.30;;
67715;SDS011;54508;43.238;25.306;2023-06-14T03:18:57;5.35;;;4.82;;
67715;SDS011;54508;43.238;25.306;2023-06-14T03:21:22;7.60;;;5.38;;
67715;SDS011;54508;43.238;25.306;2023-06-14T03:23:48;5.80;;;4.47;;
67715;SDS011;54508;43.238;25.306;2023-06-14T03:26:14;8.93;;;5.00;;
67715;SDS011;54508;43.238;25.306;2023-06-14T03:28:43;7.07;;;4.78;;
67715;SDS011;54508;43.238;25.306;2023-06-14T03:31:09;6.50;;;4.90;;
67715;SDS011;54508;43.238;25.306;2023-06-14T03:33:34;9.00;;;5.40;;
67715;SDS011;54508;43.238;25.306;2023-06-14T03:36:00;8.75;;;5.43;;
67715;SDS011;54508;43.238;25.306;2023-06-14T03:38:26;8.23;;;4.80;;
67715;SDS011;54508;43.238;25.306;2023-06-14T03:40:52;8.37;;;5.40;;
67715;SDS011;54508;43.238;25.306;2023-06-14T03:43:17;5.70;;;4.93;;
67715;SDS011;54508;43.238;25.306;2023-06-14T03:45:43;6.53;;;4.60;;
67715;SDS011;54508;43.238;25.306;2023-06-14T03:48:08;6.23;;;4.97;;
67715;SDS011;54508;43.238;25.306;2023-06-14T03:50:34;5.72;;;4.88;;
67715;SDS011;54508;43.238;25.306;2023-06-14T03:53:02;6.25;;;5.20;;
67715;SDS011;54508;43.238;25.306;2023-06-14T03:55:28;7.22;;;5.43;;
67715;SDS011;54508;43.238;25.306;2023-06-14T03:57:56;6.37;;;4.90;;
67715;SDS011;54508;43.238;25.306;2023-06-14T04:00:22;7.97;;;5.18;;
67715;SDS011;54508;43.238;25.306;2023-06-14T04:02:48;6.25;;;4.72;;
67715;SDS011;54508;43.238;25.306;2023-06-14T04:05:13;8.87;;;5.20;;
67715;SDS011;54508;43.238;25.306;2023-06-14T04:07:40;9.45;;;5.22;;
67715;SDS011;54508;43.238;25.306;2023-06-14T04:10:09;8.20;;;4.90;;
67715;SDS011;54508;43.238;25.306;2023-06-14T04:12:38;6.10;;;4.80;;
67715;SDS011;54508;43.238;25.306;2023-06-14T04:15:04;6.72;;;5.00;;
67715;SDS011;54508;43.238;25.306;2023-06-14T04:17:36;10.48;;;5.70;;
67715;SDS011;54508;43.238;25.306;2023-06-14T04:20:02;6.07;;;4.80;;
67715;SDS011;54508;43.238;25.306;2023-06-14T04:22:30;7.50;;;4.90;;
67715;SDS011;54508;43.238;25.306;2023-06-14T04:24:56;5.87;;;4.67;;
67715;SDS011;54508;43.238;25.306;2023-06-14T04:27:22;7.95;;;5.22;;
67715;SDS011;54508;43.238;25.306;2023-06-14T04:29:53;6.38;;;4.72;;
67715;SDS011;54508;43.238;25.306;2023-06-14T04:32:25;5.00;;;4.35;;
67715;SDS011;54508;43.238;25.306;2023-06-14T04:34:54;6.03;;;4.80;;
67715;SDS011;54508;43.238;25.306;2023-06-14T04:37:20;9.25;;;4.80;;
67715;SDS011;54508;43.238;25.306;2023-06-14T04:39:46;8.18;;;5.05;;
67715;SDS011;54508;43.238;25.306;2023-06-14T04:42:12;8.13;;;5.03;;
67715;SDS011;54508;43.238;25.306;2023-06-14T04:44:40;10.75;;;5.25;;
67715;SDS011;54508;43.238;25.306;2023-06-14T04:47:06;7.35;;;4.80;;
67715;SDS011;54508;43.238;25.306;2023-06-14T04:49:32;7.32;;;4.97;;
67715;SDS011;54508;43.238;25.306;2023-06-14T04:51:59;5.18;;;4.22;;
67715;SDS011;54508;43.238;25.306;2023-06-14T04:54:26;7.22;;;4.72;;
67715;SDS011;54508;43.238;25.306;2023-06-14T04:56:52;6.82;;;5.05;;
67715;SDS011;54508;43.238;25.306;2023-06-14T04:59:20;9.63;;;5.20;;
67715;SDS011;54508;43.238;25.306;2023-06-14T05:01:48;7.80;;;5.20;;
67715;SDS011;54508;43.238;25.306;2023-06-14T05:04:27;7.07;;;5.10;;
67715;SDS011;54508;43.238;25.306;2023-06-14T05:07:04;6.30;;;5.00;;
67715;SDS011;54508;43.238;25.306;2023-06-14T05:09:40;10.65;;;4.90;;
67715;SDS011;54508;43.238;25.306;2023-06-14T05:12:06;9.37;;;6.27;;
67715;SDS011;54508;43.238;25.306;2023-06-14T05:14:35;18.00;;;6.68;;
67715;SDS011;54508;43.238;25.306;2023-06-14T05:17:03;16.95;;;8.57;;
67715;SDS011;54508;43.238;25.306;2023-06-14T05:19:56;19.00;;;8.05;;
67715;SDS011;54508;43.238;25.306;2023-06-14T05:22:24;17.50;;;7.70;;
67715;SDS011;54508;43.238;25.306;2023-06-14T05:24:55;21.60;;;8.57;;
67715;SDS011;54508;43.238;25.306;2023-06-14T05:27:20;17.40;;;7.83;;
67715;SDS011;54508;43.238;25.306;2023-06-14T05:29:46;15.10;;;8.53;;
67715;SDS011;54508;43.238;25.306;2023-06-14T05:32:11;19.77;;;8.70;;
67715;SDS011;54508;43.238;25.306;2023-06-14T05:34:36;17.33;;;8.40;;
67715;SDS011;54508;43.238;25.306;2023-06-14T05:37:02;13.70;;;9.35;;
67715;SDS011;54508;43.238;25.306;2023-06-14T05:39:29;19.80;;;9.55;;
67715;SDS011;54508;43.238;25.306;2023-06-14T05:41:54;19.90;;;8.70;;
67715;SDS011;54508;43.238;25.306;2023-06-14T05:44:20;15.00;;;9.37;;
67715;SDS011;54508;43.238;25.306;2023-06-14T05:46:45;18.92;;;8.85;;
67715;SDS011;54508;43.238;25.306;2023-06-14T05:49:11;11.33;;;8.93;;
67715;SDS011;54508;43.238;25.306;2023-06-14T05:51:37;15.15;;;8.82;;
67715;SDS011;54508;43.238;25.306;2023-06-14T05:54:02;13.07;;;9.23;;
67715;SDS011;54508;43.238;25.306;2023-06-14T05:56:28;21.30;;;10.50;;
67715;SDS011;54508;43.238;25.306;2023-06-14T05:58:53;20.03;;;9.70;;
67715;SDS011;54508;43.238;25.306;2023-06-14T06:01:19;15.60;;;9.40;;
67715;SDS011;54508;43.238;25.306;2023-06-14T06:03:48;17.23;;;9.90;;
67715;SDS011;54508;43.238;25.306;2023-06-14T06:06:13;16.05;;;9.65;;
67715;SDS011;54508;43.238;25.306;2023-06-14T06:08:39;14.23;;;9.85;;
67715;SDS011;54508;43.238;25.306;2023-06-14T06:11:05;15.32;;;10.27;;
67715;SDS011;54508;43.238;25.306;2023-06-14T06:13:31;17.70;;;10.23;;
67715;SDS011;54508;43.238;25.306;2023-06-14T06:15:59;19.83;;;9.43;;
67715;SDS011;54508;43.238;25.306;2023-06-14T06:18:28;12.77;;;8.40;;
67715;SDS011;54508;43.238;25.306;2023-06-14T06:20:54;16.37;;;9.57;;
67715;SDS011;54508;43.238;25.306;2023-06-14T06:23:20;15.75;;;9.02;;
67715;SDS011;54508;43.238;25.306;2023-06-14T06:25:46;13.20;;;8.85;;
67715;SDS011;54508;43.238;25.306;2023-06-14T06:28:17;17.53;;;9.37;;
67715;SDS011;54508;43.238;25.306;2023-06-14T06:30:42;11.50;;;8.95;;
67715;SDS011;54508;43.238;25.306;2023-06-14T06:33:08;16.03;;;9.00;;
67715;SDS011;54508;43.238;25.306;2023-06-14T06:35:36;13.10;;;8.43;;
67715;SDS011;54508;43.238;25.306;2023-06-14T06:38:04;16.77;;;9.20;;
67715;SDS011;54508;43.238;25.306;2023-06-14T06:40:29;14.77;;;9.77;;
67715;SDS011;54508;43.238;25.306;2023-06-14T06:42:55;12.07;;;9.43;;
67715;SDS011;54508;43.238;25.306;2023-06-14T06:45:20;15.27;;;9.57;;
67715;SDS011;54508;43.238;25.306;2023-06-14T06:47:46;23.70;;;9.60;;
67715;SDS011;54508;43.238;25.306;2023-06-14T06:50:11;17.27;;;9.70;;
67715;SDS011;54508;43.238;25.306;2023-06-14T06:52:37;14.70;;;9.13;;
67715;SDS011;54508;43.238;25.306;2023-06-14T06:55:02;15.07;;;9.65;;
67715;SDS011;54508;43.238;25.306;2023-06-14T06:57:28;22.43;;;10.00;;
67715;SDS011;54508;43.238;25.306;2023-06-14T06:59:57;17.50;;;10.35;;
67715;SDS011;54508;43.238;25.306;2023-06-14T07:02:22;14.67;;;8.90;;
67715;SDS011;54508;43.238;25.306;2023-06-14T07:04:50;16.48;;;11.05;;
67715;SDS011;54508;43.238;25.306;2023-06-14T07:07:15;16.77;;;11.00;;
67715;SDS011;54508;43.238;25.306;2023-06-14T07:09:41;25.80;;;11.50;;
67715;SDS011;54508;43.238;25.306;2023-06-14T07:12:07;33.70;;;11.00;;
67715;SDS011;54508;43.238;25.306;2023-06-14T07:14:33;24.20;;;10.52;;
67715;SDS011;54508;43.238;25.306;2023-06-14T07:16:58;17.17;;;9.97;;
67715;SDS011;54508;43.238;25.306;2023-06-14T07:19:24;17.63;;;9.90;;
67715;SDS011;54508;43.238;25.306;2023-06-14T07:21:49;16.27;;;9.10;;
67715;SDS011;54508;43.238;25.306;2023-06-14T07:24:15;17.83;;;9.63;;
67715;SDS011;54508;43.238;25.306;2023-06-14T07:26:40;16.63;;;10.27;;
67715;SDS011;54508;43.238;25.306;2023-06-14T07:29:06;14.00;;;9.18;;
67715;SDS011;54508;43.238;25.306;2023-06-14T07:31:31;15.80;;;9.63;;
67715;SDS011;54508;43.238;25.306;2023-06-14T07:33:57;13.80;;;9.10;;
67715;SDS011;54508;43.238;25.306;2023-06-14T07:36:22;11.27;;;7.80;;
67715;SDS011;54508;43.238;25.306;2023-06-14T07:38:48;17.00;;;8.23;;
67715;SDS011;54508;43.238;25.306;2023-06-14T07:41:16;10.33;;;6.80;;
67715;SDS011;54508;43.238;25.306;2023-06-14T07:43:58;13.27;;;7.93;;
67715;SDS011;54508;43.238;25.306;2023-06-14T07:46:24;10.43;;;7.93;;
67715;SDS011;54508;43.238;25.306;2023-06-14T07:48:50;18.30;;;7.60;;
67715;SDS011;54508;43.238;25.306;2023-06-14T07:51:16;10.23;;;7.13;;
67715;SDS011;54508;43.238;25.306;2023-06-14T07:53:41;12.75;;;6.88;;
67715;SDS011;54508;43.238;25.306;2023-06-14T07:56:07;17.73;;;8.30;;
67715;SDS011;54508;43.238;25.306;2023-06-14T07:58:32;14.10;;;6.67;;
67715;SDS011;54508;43.238;25.306;2023-06-14T08:00:58;12.63;;;6.60;;
67715;SDS011;54508;43.238;25.306;2023-06-14T08:03:25;13.98;;;9.57;;
67715;SDS011;54508;43.238;25.306;2023-06-14T08:05:50;12.87;;;8.07;;
67715;SDS011;54508;43.238;25.306;2023-06-14T08:08:16;17.90;;;8.77;;
67715;SDS011;54508;43.238;25.306;2023-06-14T08:10:41;29.73;;;21.90;;
67715;SDS011;54508;43.238;25.306;2023-06-14T08:13:07;73.37;;;49.43;;
67715;SDS011;54508;43.238;25.306;2023-06-14T08:15:34;36.92;;;26.73;;
67715;SDS011;54508;43.238;25.306;2023-06-14T08:17:59;26.60;;;22.70;;
67715;SDS011;54508;43.238;25.306;2023-06-14T08:20:26;23.25;;;19.25;;
67715;SDS011;54508;43.238;25.306;2023-06-14T08:22:51;24.80;;;21.10;;
67715;SDS011;54508;43.238;25.306;2023-06-14T08:25:20;23.77;;;19.27;;
67715;SDS011;54508;43.238;25.306;2023-06-14T08:27:48;23.10;;;17.08;;
67715;SDS011;54508;43.238;25.306;2023-06-14T08:30:16;20.07;;;14.90;;
67715;SDS011;54508;43.238;25.306;2023-06-14T08:32:42;18.10;;;13.07;;
67715;SDS011;54508;43.238;25.306;2023-06-14T08:35:08;13.15;;;10.15;;
67715;SDS011;54508;43.238;25.306;2023-06-14T08:37:37;13.23;;;9.27;;
67715;SDS011;54508;43.238;25.306;2023-06-14T08:40:04;11.73;;;9.23;;
67715;SDS011;54508;43.238;25.306;2023-06-14T08:42:47;12.20;;;8.75;;
67715;SDS011;54508;43.238;25.306;2023-06-14T08:45:13;12.32;;;7.95;;
67715;SDS011;54508;43.238;25.306;2023-06-14T08:47:39;13.27;;;8.82;;
67715;SDS011;54508;43.238;25.306;2023-06-14T08:50:05;11.32;;;7.78;;
67715;SDS011;54508;43.238;25.306;2023-06-14T08:52:33;8.97;;;7.33;;
67715;SDS011;54508;43.238;25.306;2023-06-14T08:55:05;16.65;;;8.45;;
67715;SDS011;54508;43.238;25.306;2023-06-14T08:57:31;17.40;;;7.40;;
67715;SDS011;54508;43.238;25.306;2023-06-14T08:59:58;16.48;;;7.65;;
67715;SDS011;54508;43.238;25.306;2023-06-14T09:02:29;24.83;;;8.15;;
67715;SDS011;54508;43.238;25.306;2023-06-14T09:04:55;21.60;;;8.50;;
67715;SDS011;54508;43.238;25.306;2023-06-14T09:07:24;15.32;;;8.38;;
67715;SDS011;54508;43.238;25.306;2023-06-14T09:10:04;11.03;;;6.93;;
67715;SDS011;54508;43.238;25.306;2023-06-14T09:12:31;12.20;;;6.55;;
67715;SDS011;54508;43.238;25.306;2023-06-14T09:14:59;14.35;;;8.32;;
67715;SDS011;54508;43.238;25.306;2023-06-14T09:17:24;13.80;;;6.80;;
67715;SDS011;54508;43.238;25.306;2023-06-14T09:19:53;18.17;;;8.13;;
67715;SDS011;54508;43.238;25.306;2023-06-14T09:22:20;19.55;;;6.88;;
67715;SDS011;54508;43.238;25.306;2023-06-14T09:24:46;11.85;;;6.15;;
67715;SDS011;54508;43.238;25.306;2023-06-14T09:27:14;12.77;;;7.40;;
67715;SDS011;54508;43.238;25.306;2023-06-14T09:29:40;22.10;;;7.07;;
67715;SDS011;54508;43.238;25.306;2023-06-14T09:32:06;15.13;;;6.20;;
67715;SDS011;54508;43.238;25.306;2023-06-14T09:34:32;11.20;;;6.50;;
67715;SDS011;54508;43.238;25.306;2023-06-14T09:36:58;9.57;;;6.22;;
67715;SDS011;54508;43.238;25.306;2023-06-14T09:39:23;16.63;;;6.82;;
67715;SDS011;54508;43.238;25.306;2023-06-14T09:41:50;8.65;;;5.78;;
67715;SDS011;54508;43.238;25.306;2023-06-14T09:44:15;10.63;;;5.40;;
67715;SDS011;54508;43.238;25.306;2023-06-14T09:46:43;8.70;;;6.15;;
67715;SDS011;54508;43.238;25.306;2023-06-14T09:49:09;9.93;;;5.78;;
67715;SDS011;54508;43.238;25.306;2023-06-14T09:51:34;7.13;;;5.38;;
67715;SDS011;54508;43.238;25.306;2023-06-14T09:54:03;7.38;;;6.05;;
67715;SDS011;54508;43.238;25.306;2023-06-14T09:56:33;6.40;;;5.00;;
67715;SDS011;54508;43.238;25.306;2023-06-14T09:59:00;8.07;;;5.15;;
67715;SDS011;54508;43.238;25.306;2023-06-14T10:01:30;8.95;;;5.10;;
67715;SDS011;54508;43.238;25.306;2023-06-14T10:04:03;7.22;;;4.88;;
67715;SDS011;54508;43.238;25.306;2023-06-14T10:06:30;5.78;;;4.82;;
67715;SDS011;54508;43.238;25.306;2023-06-14T10:08:56;5.05;;;3.90;;
67715;SDS011;54508;43.238;25.306;2023-06-14T10:11:25;6.93;;;4.57;;
67715;SDS011;54508;43.238;25.306;2023-06-14T10:13:51;8.68;;;4.47;;
67715;SDS011;54508;43.238;25.306;2023-06-14T10:16:28;5.57;;;4.55;;
67715;SDS011;54508;43.238;25.306;2023-06-14T10:24:44;8.98;;;5.25;;
67715;SDS011;54508;43.238;25.306;2023-06-14T10:27:14;6.07;;;4.60;;
67715;SDS011;54508;43.238;25.306;2023-06-14T10:32:21;7.57;;;4.60;;
67715;SDS011;54508;43.238;25.306;2023-06-14T10:34:53;10.05;;;5.00;;
67715;SDS011;54508;43.238;25.306;2023-06-14T10:37:20;6.00;;;4.00;;
67715;SDS011;54508;43.238;25.306;2023-06-14T10:39:46;5.40;;;4.37;;
67715;SDS011;54508;43.238;25.306;2023-06-14T10:42:12;5.20;;;3.65;;
67715;SDS011;54508;43.238;25.306;2023-06-14T10:44:39;10.45;;;3.50;;
67715;SDS011;54508;43.238;25.306;2023-06-14T10:49:55;10.93;;;3.58;;
67715;SDS011;54508;43.238;25.306;2023-06-14T10:52:32;4.63;;;3.40;;
67715;SDS011;54508;43.238;25.306;2023-06-14T10:55:08;4.68;;;3.08;;
67715;SDS011;54508;43.238;25.306;2023-06-14T11:00:23;6.80;;;3.20;;
67715;SDS011;54508;43.238;25.306;2023-06-14T11:05:55;8.00;;;3.53;;
67715;SDS011;54508;43.238;25.306;2023-06-14T11:11:01;5.25;;;3.33;;
67715;SDS011;54508;43.238;25.306;2023-06-14T11:13:31;4.37;;;3.00;;
67715;SDS011;54508;43.238;25.306;2023-06-14T11:16:14;4.90;;;2.58;;
67715;SDS011;54508;43.238;25.306;2023-06-14T11:18:41;4.72;;;2.60;;
67715;SDS011;54508;43.238;25.306;2023-06-14T11:21:07;3.88;;;2.53;;
67715;SDS011;54508;43.238;25.306;2023-06-14T11:23:34;6.70;;;2.65;;
67715;SDS011;54508;43.238;25.306;2023-06-14T11:26:03;4.93;;;2.70;;
67715;SDS011;54508;43.238;25.306;2023-06-14T11:28:39;7.07;;;3.15;;
67715;SDS011;54508;43.238;25.306;2023-06-14T11:31:05;5.55;;;2.50;;
67715;SDS011;54508;43.238;25.306;2023-06-14T11:33:55;5.07;;;2.58;;
67715;SDS011;54508;43.238;25.306;2023-06-14T11:36:22;8.07;;;2.60;;
67715;SDS011;54508;43.238;25.306;2023-06-14T11:39:03;5.60;;;2.33;;
67715;SDS011;54508;43.238;25.306;2023-06-14T11:41:41;3.42;;;2.50;;
67715;SDS011;54508;43.238;25.306;2023-06-14T11:44:17;5.80;;;3.10;;
67715;SDS011;54508;43.238;25.306;2023-06-14T11:46:51;9.38;;;2.85;;
67715;SDS011;54508;43.238;25.306;2023-06-14T11:49:23;5.75;;;2.42;;
67715;SDS011;54508;43.238;25.306;2023-06-14T11:51:49;5.70;;;2.47;;
67715;SDS011;54508;43.238;25.306;2023-06-14T11:54:15;3.25;;;2.25;;
67715;SDS011;54508;43.238;25.306;2023-06-14T11:56:41;3.60;;;2.00;;
67715;SDS011;54508;43.238;25.306;2023-06-14T11:59:07;2.90;;;2.28;;
67715;SDS011;54508;43.238;25.306;2023-06-14T12:01:35;4.03;;;2.17;;
67715;SDS011;54508;43.238;25.306;2023-06-14T12:04:04;3.90;;;2.20;;
67715;SDS011;54508;43.238;25.306;2023-06-14T12:06:50;5.57;;;2.25;;
67715;SDS011;54508;43.238;25.306;2023-06-14T12:09:18;2.35;;;2.00;;
67715;SDS011;54508;43.238;25.306;2023-06-14T12:11:44;6.40;;;2.00;;
67715;SDS011;54508;43.238;25.306;2023-06-14T12:14:10;2.28;;;1.95;;
67715;SDS011;54508;43.238;25.306;2023-06-14T12:16:39;3.10;;;1.90;;
67715;SDS011;54508;43.238;25.306;2023-06-14T12:19:14;3.33;;;2.35;;
67715;SDS011;54508;43.238;25.306;2023-06-14T12:21:41;4.35;;;2.10;;
67715;SDS011;54508;43.238;25.306;2023-06-14T12:24:07;5.93;;;2.50;;
67715;SDS011;54508;43.238;25.306;2023-06-14T12:26:37;5.60;;;2.63;;
67715;SDS011;54508;43.238;25.306;2023-06-14T12:29:06;3.78;;;2.50;;
67715;SDS011;54508;43.238;25.306;2023-06-14T12:31:32;4.90;;;2.47;;
67715;SDS011;54508;43.238;25.306;2023-06-14T12:33:58;6.30;;;4.28;;
67715;SDS011;54508;43.238;25.306;2023-06-14T12:36:24;11.90;;;7.25;;
67715;SDS011;54508;43.238;25.306;2023-06-14T12:38:50;43.38;;;33.58;;
67715;SDS011;54508;43.238;25.306;2023-06-14T12:41:18;37.90;;;29.15;;
67715;SDS011;54508;43.238;25.306;2023-06-14T12:43:46;24.65;;;19.35;;
67715;SDS011;54508;43.238;25.306;2023-06-14T12:46:24;17.42;;;13.85;;
67715;SDS011;54508;43.238;25.306;2023-06-14T12:48:50;15.75;;;10.15;;
67715;SDS011;54508;43.238;25.306;2023-06-14T12:51:16;14.07;;;9.63;;
67715;SDS011;54508;43.238;25.306;2023-06-14T12:53:41;14.03;;;10.53;;
67715;SDS011;54508;43.238;25.306;2023-06-14T12:56:07;10.88;;;8.60;;
67715;SDS011;54508;43.238;25.306;2023-06-14T12:58:35;10.03;;;8.00;;
67715;SDS011;54508;43.238;25.306;2023-06-14T13:01:01;16.17;;;11.13;;
67715;SDS011;54508;43.238;25.306;2023-06-14T13:03:26;38.80;;;32.20;;
67715;SDS011;54508;43.238;25.306;2023-06-14T13:05:52;31.47;;;28.17;;
67715;SDS011;54508;43.238;25.306;2023-06-14T13:08:17;30.10;;;24.50;;
67715;SDS011;54508;43.238;25.306;2023-06-14T13:10:43;40.00;;;35.13;;
67715;SDS011;54508;43.238;25.306;2023-06-14T13:13:08;41.10;;;36.70;;
67715;SDS011;54508;43.238;25.306;2023-06-14T13:15:34;41.10;;;36.60;;
67715;SDS011;54508;43.238;25.306;2023-06-14T13:18:00;37.13;;;30.55;;
67715;SDS011;54508;43.238;25.306;2023-06-14T13:20:26;36.00;;;26.98;;
67715;SDS011;54508;43.238;25.306;2023-06-14T13:22:52;24.77;;;21.97;;
67715;SDS011;54508;43.238;25.306;2023-06-14T13:25:17;27.00;;;22.77;;
67715;SDS011;54508;43.238;25.306;2023-06-14T13:27:54;25.37;;;19.63;;
67715;SDS011;54508;43.238;25.306;2023-06-14T13:30:19;20.95;;;17.17;;
67715;SDS011;54508;43.238;25.306;2023-06-14T13:32:46;23.08;;;16.90;;
67715;SDS011;54508;43.238;25.306;2023-06-14T13:35:12;17.30;;;14.90;;
67715;SDS011;54508;43.238;25.306;2023-06-14T13:37:38;15.33;;;13.83;;
67715;SDS011;54508;43.238;25.306;2023-06-14T13:40:03;15.10;;;13.00;;
67715;SDS011;54508;43.238;25.306;2023-06-14T13:42:33;17.67;;;12.18;;
67715;SDS011;54508;43.238;25.306;2023-06-14T13:44:58;14.93;;;11.27;;
67715;SDS011;54508;43.238;25.306;2023-06-14T13:47:24;14.00;;;9.87;;
67715;SDS011;54508;43.238;25.306;2023-06-14T13:49:49;13.10;;;9.17;;
67715;SDS011;54508;43.238;25.306;2023-06-14T13:52:15;10.53;;;8.90;;
67715;SDS011;54508;43.238;25.306;2023-06-14T13:54:40;8.88;;;8.00;;
67715;SDS011;54508;43.238;25.306;2023-06-14T13:57:07;8.73;;;7.65;;
67715;SDS011;54508;43.238;25.306;2023-06-14T13:59:32;8.10;;;7.30;;
67715;SDS011;54508;43.238;25.306;2023-06-14T14:01:58;8.37;;;7.47;;
67715;SDS011;54508;43.238;25.306;2023-06-14T14:04:24;9.80;;;7.10;;
67715;SDS011;54508;43.238;25.306;2023-06-14T14:06:49;7.50;;;6.57;;
67715;SDS011;54508;43.238;25.306;2023-06-14T14:09:15;10.57;;;6.27;;
67715;SDS011;54508;43.238;25.306;2023-06-14T14:11:40;9.13;;;6.10;;
67715;SDS011;54508;43.238;25.306;2023-06-14T14:14:12;8.98;;;5.90;;
67715;SDS011;54508;43.238;25.306;2023-06-14T14:16:38;6.78;;;5.93;;
67715;SDS011;54508;43.238;25.306;2023-06-14T14:19:03;6.10;;;5.50;;
67715;SDS011;54508;43.238;25.306;2023-06-14T14:21:29;6.43;;;5.60;;
67715;SDS011;54508;43.238;25.306;2023-06-14T14:23:54;6.90;;;5.20;;
67715;SDS011;54508;43.238;25.306;2023-06-14T14:26:20;6.00;;;5.40;;
67715;SDS011;54508;43.238;25.306;2023-06-14T14:28:45;7.47;;;4.80;;
67715;SDS011;54508;43.238;25.306;2023-06-14T14:31:11;5.23;;;4.63;;
67715;SDS011;54508;43.238;25.306;2023-06-14T14:33:36;8.13;;;5.65;;
67715;SDS011;54508;43.238;25.306;2023-06-14T14:36:02;6.10;;;5.33;;
67715;SDS011;54508;43.238;25.306;2023-06-14T14:38:29;8.23;;;5.03;;
67715;SDS011;54508;43.238;25.306;2023-06-14T14:40:54;8.43;;;5.60;;
67715;SDS011;54508;43.238;25.306;2023-06-14T14:43:20;6.22;;;4.97;;
67715;SDS011;54508;43.238;25.306;2023-06-14T14:45:45;6.15;;;5.38;;
67715;SDS011;54508;43.238;25.306;2023-06-14T14:48:11;6.40;;;5.27;;